createdAt,value
2018-08-16T00:04:07.393Z,1.21
2018-08-16T00:10:02.383Z,1.29
2018-08-16T00:15:57.381Z,1.19
2018-08-16T00:21:52.419Z,1.12
2018-08-16T00:27:47.453Z,1.26
2018-08-16T00:33:42.386Z,1.22
2018-08-16T00:39:37.423Z,1.09
2018-08-16T00:45:32.412Z,1.2
2018-08-16T00:51:27.420Z,1.19
2018-08-16T00:57:22.437Z,1.22
2018-08-16T01:03:17.482Z,1.12
2018-08-16T01:09:12.440Z,1.11
2018-08-16T01:15:07.434Z,1.19
2018-08-16T01:23:47.076Z,1.21
2018-08-16T01:29:42.092Z,1.09
2018-08-16T01:35:37.181Z,1.16
2018-08-16T01:41:32.101Z,1.14
2018-08-16T01:47:27.091Z,1.03
2018-08-16T01:53:22.130Z,1.14
2018-08-16T01:59:17.117Z,1
2018-08-16T02:05:12.230Z,1.27
2018-08-16T02:11:07.121Z,1.22
2018-08-16T02:17:02.115Z,1.19
2018-08-16T02:22:57.177Z,1.3
2018-08-16T02:28:52.114Z,1.23
2018-08-16T02:34:47.137Z,1.24
2018-08-16T02:40:42.127Z,1.63
2018-08-16T02:46:37.156Z,1.36
2018-08-16T02:52:32.142Z,1.35
2018-08-16T02:58:27.163Z,1.3
2018-08-16T03:04:22.137Z,1.33
2018-08-16T03:10:17.158Z,1.5
2018-08-16T03:16:12.187Z,1.21
2018-08-16T03:22:07.160Z,1.27
2018-08-16T03:28:02.202Z,1.31
2018-08-16T03:33:57.152Z,1.41
2018-08-16T03:39:52.157Z,1.31
2018-08-16T03:45:47.184Z,1.47
2018-08-16T03:51:42.168Z,1.26
2018-08-16T03:57:37.199Z,1.29
2018-08-16T04:03:32.174Z,1.34
2018-08-16T04:09:27.212Z,1.41
2018-08-16T04:15:22.177Z,1.32
2018-08-16T04:21:17.213Z,1.24
2018-08-16T04:27:12.187Z,1.43
2018-08-16T04:33:07.185Z,1.26
2018-08-16T04:39:02.305Z,1.31
2018-08-16T04:44:57.268Z,1.43
2018-08-16T04:50:52.263Z,1.39
2018-08-16T04:56:47.253Z,1.58
2018-08-16T05:02:42.236Z,1.31
2018-08-16T05:08:37.212Z,1.36
2018-08-16T05:14:32.249Z,1.44
2018-08-16T05:20:27.227Z,1.49
2018-08-16T05:26:22.241Z,1.28
2018-08-16T05:32:17.230Z,1.09
2018-08-16T05:38:12.261Z,1.18
2018-08-16T05:44:07.270Z,1.32
2018-08-16T05:50:02.304Z,1.4
2018-08-16T05:55:57.255Z,1.37
2018-08-16T06:01:52.268Z,1.33
2018-08-16T06:07:47.312Z,1.33
2018-08-16T06:13:42.241Z,1.27
2018-08-16T06:19:37.266Z,1.15
2018-08-16T06:25:32.263Z,1.25
2018-08-16T06:31:27.272Z,1.47
2018-08-16T06:37:22.267Z,1.3
2018-08-16T06:43:17.276Z,1.18
2018-08-16T06:49:12.276Z,1.34
2018-08-16T06:55:07.274Z,1.36
2018-08-16T07:01:02.320Z,1.34
2018-08-16T07:06:57.276Z,1.41
2018-08-16T07:12:52.374Z,0.99
2018-08-16T07:18:47.388Z,1.37
2018-08-16T07:24:42.306Z,1.4
2018-08-16T07:30:37.368Z,1.26
2018-08-16T07:36:32.318Z,1.13
2018-08-16T07:42:27.311Z,1.01
2018-08-16T07:48:22.320Z,1.43
2018-08-16T07:54:17.328Z,1.31
2018-08-16T08:00:12.352Z,1.52
2018-08-16T08:06:07.355Z,1.25
2018-08-16T08:12:02.396Z,1.38
2018-08-16T08:17:57.315Z,1.41
2018-08-16T08:23:52.341Z,1.42
2018-08-16T08:29:47.348Z,1.38
2018-08-16T08:35:42.355Z,1.24
2018-08-16T08:41:37.386Z,1.09
2018-08-16T08:47:32.363Z,1.04
2018-08-16T08:53:27.345Z,1.27
2018-08-16T08:59:22.393Z,1.14
2018-08-16T09:05:17.359Z,1.46
2018-08-16T09:11:12.362Z,1.19
2018-08-16T09:17:07.375Z,1.16
2018-08-16T09:23:02.395Z,1.13
2018-08-16T09:28:57.381Z,1.1
2018-08-16T09:34:52.389Z,1.09
2018-08-16T09:40:47.375Z,1.2
2018-08-16T09:46:42.388Z,1.46
2018-08-16T09:52:37.440Z,1.25
2018-08-16T09:58:32.423Z,1.13
2018-08-16T10:04:27.420Z,1.35
2018-08-16T10:10:22.446Z,1.26
2018-08-16T10:16:17.406Z,1.2
2018-08-16T10:22:12.451Z,1.43
2018-08-16T10:28:07.436Z,1.41
2018-08-16T10:34:02.429Z,1.19
2018-08-16T10:39:57.409Z,0.9
2018-08-16T10:45:52.416Z,1.04
2018-08-16T10:51:47.461Z,1.17
2018-08-16T10:57:42.440Z,1.34
2018-08-16T11:03:37.511Z,1.13
2018-08-16T11:09:32.460Z,1.05
2018-08-16T11:15:27.423Z,1.18
2018-08-16T11:21:22.480Z,1.11
2018-08-16T11:27:17.442Z,1.14
2018-08-16T11:33:12.476Z,1.17
2018-08-16T11:39:07.462Z,1.1
2018-08-16T11:45:02.465Z,1.14
2018-08-16T11:50:57.468Z,0.95
2018-08-16T11:56:52.477Z,1.05
2018-08-16T12:02:47.461Z,1.16
2018-08-16T12:08:42.449Z,1.38
2018-08-16T12:14:37.532Z,1.05
2018-08-16T12:20:32.462Z,0.98
2018-08-16T12:26:27.523Z,1.23
2018-08-16T12:32:22.515Z,1.01
2018-08-16T12:38:17.501Z,1.09
2018-08-16T12:44:12.501Z,1.09
2018-08-16T12:50:07.537Z,1.18
2018-08-16T12:56:02.487Z,1.14
2018-08-16T13:01:57.622Z,0.97
2018-08-16T13:07:52.508Z,1.02
2018-08-16T13:13:47.510Z,1.32
2018-08-16T13:19:42.500Z,1.49
2018-08-16T13:25:37.551Z,1.2
2018-08-16T13:31:32.518Z,1.14
2018-08-16T13:37:27.525Z,1.2
2018-08-16T13:43:22.530Z,1.37
2018-08-16T13:49:17.514Z,1.69
2018-08-16T13:55:12.548Z,1.94
2018-08-16T14:01:07.576Z,1.08
2018-08-16T14:07:02.567Z,1.18
2018-08-16T14:12:57.551Z,1.43
2018-08-16T14:18:52.592Z,1.71
2018-08-16T14:24:47.562Z,1.71
2018-08-16T14:30:42.631Z,1.81
2018-08-16T14:36:37.575Z,1.61
2018-08-16T14:42:32.559Z,1.39
2018-08-16T14:48:27.573Z,1.65
2018-08-16T14:54:22.591Z,1.91
2018-08-16T15:00:17.567Z,1.57
2018-08-16T15:06:12.569Z,1.38
2018-08-16T15:12:07.608Z,1.65
2018-08-16T15:18:02.605Z,1.41
2018-08-16T15:23:57.614Z,1.59
2018-08-16T15:29:52.582Z,1.71
2018-08-16T15:35:47.615Z,1.56
2018-08-16T15:41:42.585Z,1.64
2018-08-16T15:47:37.599Z,1.52
2018-08-16T15:53:32.600Z,1.53
2018-08-16T15:59:27.614Z,1.23
2018-08-16T16:05:22.635Z,1.59
2018-08-16T16:11:17.623Z,1.26
2018-08-16T16:17:12.621Z,1.14
2018-08-16T16:23:08.202Z,1.14
2018-08-16T16:29:03.161Z,1.14
2018-08-16T16:34:58.147Z,1.14
2018-08-16T16:40:53.165Z,1.14
2018-08-16T16:46:48.143Z,1.14
2018-08-16T16:52:43.196Z,1.14
2018-08-16T16:58:38.176Z,1.14
2018-08-16T17:04:33.173Z,1.14
2018-08-16T17:10:28.238Z,1.14
2018-08-16T17:16:23.202Z,1.14
2018-08-16T17:22:18.184Z,1.14
2018-08-16T17:28:13.189Z,1.14
2018-08-16T17:34:08.217Z,1.14
2018-08-16T17:40:03.228Z,1.14
2018-08-16T17:45:58.208Z,1.14
2018-08-16T17:51:53.222Z,1.14
2018-08-16T17:57:48.240Z,1.14
2018-08-16T18:03:43.245Z,1.14
2018-08-16T18:09:38.217Z,1.14
2018-08-16T18:15:33.218Z,1.14
2018-08-16T18:21:28.282Z,1.14
2018-08-16T18:27:23.217Z,1.14
2018-08-16T18:33:18.359Z,1.14
2018-08-16T18:39:13.287Z,1.14
2018-08-16T18:45:08.278Z,1.14
2018-08-16T18:51:03.374Z,1.14
2018-08-16T18:56:58.406Z,1.14
2018-08-16T19:02:53.452Z,1.14
2018-08-16T19:08:48.286Z,1.14
2018-08-16T19:14:43.318Z,1.14
2018-08-16T19:20:38.270Z,1.14
2018-08-16T19:26:33.256Z,1.14
2018-08-16T19:32:28.334Z,1.14
2018-08-16T19:38:23.293Z,1.14
2018-08-16T19:44:18.294Z,1.14
2018-08-16T19:50:13.309Z,1.14
2018-08-16T19:56:08.317Z,1.14
2018-08-16T20:02:03.278Z,1.14
2018-08-16T20:07:58.306Z,1.14
2018-08-16T20:13:53.304Z,1.14
2018-08-16T20:19:48.382Z,1.14
2018-08-16T20:25:43.323Z,1.14
2018-08-16T20:31:38.369Z,1.14
2018-08-16T20:37:33.349Z,1.14
2018-08-16T20:43:28.336Z,1.14
2018-08-16T20:49:23.380Z,1.14
2018-08-16T20:55:18.323Z,1.14
2018-08-16T21:01:13.389Z,1.14
2018-08-16T21:07:08.327Z,1.14
2018-08-16T21:13:03.333Z,1.14
2018-08-16T21:18:58.334Z,1.14
2018-08-16T21:24:53.345Z,1.14
2018-08-16T21:30:48.359Z,1.14
2018-08-16T21:36:43.356Z,1.14
2018-08-16T21:42:38.317Z,1.14
2018-08-16T21:48:33.360Z,1.14
2018-08-16T21:54:28.364Z,1.14
2018-08-16T22:00:23.369Z,1.14
2018-08-16T22:06:18.397Z,1.14
2018-08-16T22:12:13.439Z,1.14
2018-08-16T22:18:08.387Z,1.14
2018-08-16T22:24:03.414Z,1.14
2018-08-16T22:29:58.501Z,1.14
2018-08-16T22:35:53.367Z,1.14
2018-08-16T22:41:48.408Z,1.14
2018-08-16T22:47:43.380Z,1.14
2018-08-16T22:53:38.418Z,1.14
2018-08-16T22:59:33.400Z,1.14
2018-08-16T23:05:28.416Z,1.14
2018-08-16T23:11:23.405Z,1.14
2018-08-16T23:17:18.454Z,1.14
2018-08-16T23:23:13.435Z,1.14
2018-08-16T23:29:08.402Z,1.14
2018-08-16T23:35:03.430Z,1.14
2018-08-16T23:40:58.433Z,1.14
2018-08-16T23:46:53.432Z,1.14
2018-08-16T23:52:48.427Z,1.14
2018-08-16T23:58:43.441Z,1.14
